Time;durP1;ratioP1;P1;durP2;ratioP2;P2;SDS_P1;SDS_P2;PMS_P1;PMS_P2;Temp;Humidity;BMP_temperature;BMP_pressure;BME280_temperature;BME280_humidity;BME280_pressure;Samples;Min_cycle;Max_cycle;Signal;HPM_P1;HPM_P2
2022/10/26 00:02:13;;;;;;;3.43;2.20;;;8.40;99.90;;;;;;5019214;28;20163;-90
2022/10/26 00:04:39;;;;;;;7.20;3.17;;;8.40;99.90;;;;;;5019765;28;20176;-92
2022/10/26 00:07:04;;;;;;;5.50;2.43;;;8.50;99.90;;;;;;5019175;28;20622;-86
2022/10/26 00:09:30;;;;;;;3.83;1.33;;;8.30;99.90;;;;;;5018407;28;20634;-86
2022/10/26 00:11:55;;;;;;;4.23;1.97;;;8.20;99.90;;;;;;5018764;28;20233;-90
2022/10/26 00:14:21;;;;;;;7.90;3.27;;;8.30;99.90;;;;;;5019054;28;20207;-85
2022/10/26 00:16:46;;;;;;;5.90;3.80;;;8.60;99.90;;;;;;5018148;28;20632;-91
2022/10/26 00:19:12;;;;;;;7.57;3.13;;;8.80;99.90;;;;;;5036113;28;20697;-85
2022/10/26 00:21:37;;;;;;;5.60;3.27;;;8.60;99.90;;;;;;5036279;28;20229;-85
2022/10/26 00:24:03;;;;;;;4.13;2.43;;;8.50;99.90;;;;;;5019040;28;20546;-92
2022/10/26 00:26:28;;;;;;;5.43;2.60;;;8.50;99.90;;;;;;5019235;28;20200;-85
2022/10/26 00:28:55;;;;;;;6.10;3.37;;;8.30;99.90;;;;;;5036938;28;20529;-92
2022/10/26 00:31:21;;;;;;;8.30;3.60;;;8.40;99.90;;;;;;5036287;28;20645;-86
2022/10/26 00:33:50;;;;;;;4.40;2.40;;;8.60;99.90;;;;;;5036116;28;20547;-92
2022/10/26 00:36:17;;;;;;;7.47;3.30;;;8.50;99.90;;;;;;5019120;28;20190;-89
2022/10/26 00:38:48;;;;;;;5.87;2.93;;;8.40;99.90;;;;;;5036741;28;20428;-85
2022/10/26 00:41:19;;;;;;;5.73;3.10;;;8.20;99.90;;;;;;5018906;28;20413;-89
2022/10/26 00:43:45;;;;;;;7.93;3.03;;;8.30;99.90;;;;;;5036197;28;20417;-85
2022/10/26 00:46:23;;;;;;;6.47;3.93;;;8.60;99.90;;;;;;5018227;28;21028;-87
2022/10/26 00:48:55;;;;;;;6.33;3.57;;;8.60;99.90;;;;;;5036695;28;20178;-87
2022/10/26 00:51:31;;;;;;;8.53;5.10;;;8.70;99.90;;;;;;5018442;28;20469;-85
2022/10/26 00:54:01;;;;;;;9.30;4.93;;;8.80;99.90;;;;;;5018436;28;20587;-86
2022/10/26 00:56:28;;;;;;;8.30;4.30;;;8.80;99.90;;;;;;5036298;28;20773;-85
2022/10/26 00:58:55;;;;;;;6.83;3.53;;;8.80;99.90;;;;;;5018292;28;20415;-87
2022/10/26 01:01:20;;;;;;;6.27;2.73;;;8.70;99.90;;;;;;5017479;28;20426;-87
2022/10/26 01:03:47;;;;;;;6.60;3.37;;;8.50;99.90;;;;;;5017958;28;20826;-90
2022/10/26 01:06:13;;;;;;;7.33;4.43;;;8.50;99.90;;;;;;5035671;28;20662;-87
2022/10/26 01:08:42;;;;;;;4.10;2.53;;;8.50;99.90;;;;;;5017711;28;20786;-87
2022/10/26 01:11:08;;;;;;;5.03;2.57;;;8.40;99.90;;;;;;5035317;28;20460;-91
2022/10/26 01:13:35;;;;;;;5.70;2.60;;;8.50;99.90;;;;;;5017165;28;20427;-89
2022/10/26 01:16:09;;;;;;;4.10;2.60;;;8.40;99.90;;;;;;5034979;28;20435;-92
2022/10/26 01:19:12;;;;;;;8.20;3.67;;;8.40;99.90;;;;;;5035045;28;20444;-86
2022/10/26 01:22:09;;;;;;;5.03;3.37;;;8.60;99.90;;;;;;5017365;28;20512;-86
2022/10/26 01:25:00;;;;;;;4.90;2.70;;;8.50;99.90;;;;;;5034804;28;20500;-87
2022/10/26 01:27:33;;;;;;;5.87;2.80;;;8.20;99.90;;;;;;5035047;28;20424;-86
2022/10/26 01:30:13;;;;;;;2.97;1.93;;;8.30;99.90;;;;;;5017152;28;20424;-86
2022/10/26 01:32:51;;;;;;;8.60;3.23;;;8.20;99.90;;;;;;5034602;28;20779;-86
2022/10/26 01:35:25;;;;;;;6.40;3.37;;;8.10;99.90;;;;;;5017176;28;20560;-87
2022/10/26 01:38:02;;;;;;;9.23;4.00;;;8.30;99.90;;;;;;5017254;28;20882;-92
2022/10/26 01:40:38;;;;;;;6.90;4.37;;;8.50;99.90;;;;;;5017762;28;20521;-89
2022/10/26 01:43:08;;;;;;;6.90;3.80;;;8.60;99.90;;;;;;5018574;28;20914;-93
2022/10/26 01:45:38;;;;;;;5.73;4.53;;;8.70;99.90;;;;;;5034397;28;20439;-85
2022/10/26 01:48:05;;;;;;;5.80;4.10;;;8.70;99.90;;;;;;5016703;28;20412;-85
2022/10/26 01:50:31;;;;;;;7.97;3.90;;;8.70;99.90;;;;;;5016875;28;20567;-92
2022/10/26 01:52:57;;;;;;;8.83;4.17;;;8.60;99.90;;;;;;5016995;28;20533;-93
2022/10/26 01:55:38;;;;;;;6.83;3.83;;;8.60;99.90;;;;;;5017025;28;20239;-91
2022/10/26 01:58:42;;;;;;;7.27;3.63;;;8.60;99.90;;;;;;5017168;28;20165;-91
2022/10/26 02:01:28;;;;;;;7.13;3.50;;;8.60;99.90;;;;;;5016327;28;20425;-87
2022/10/26 02:04:12;;;;;;;5.70;4.10;;;8.60;99.90;;;;;;5016830;28;20461;-91
2022/10/26 02:06:55;;;;;;;8.27;4.60;;;8.60;99.90;;;;;;5034114;28;20836;-87
2022/10/26 02:09:32;;;;;;;9.60;4.53;;;8.60;99.90;;;;;;5034158;28;20416;-86
2022/10/26 02:12:01;;;;;;;7.67;3.30;;;8.50;99.90;;;;;;5016685;28;20430;-89
2022/10/26 02:14:44;;;;;;;5.60;3.77;;;8.50;99.90;;;;;;5016493;28;20472;-84
2022/10/26 02:17:22;;;;;;;4.77;3.40;;;8.60;99.90;;;;;;5015917;28;20423;-85
2022/10/26 02:20:03;;;;;;;9.73;4.83;;;8.50;99.90;;;;;;5033978;28;20416;-87
2022/10/26 02:22:35;;;;;;;6.30;3.90;;;8.50;99.90;;;;;;5016335;28;20913;-88
2022/10/26 02:25:10;;;;;;;11.37;3.40;;;8.50;99.90;;;;;;5016023;28;20866;-85
2022/10/26 02:27:42;;;;;;;7.43;3.50;;;8.50;99.90;;;;;;5033881;28;20748;-86
2022/10/26 02:30:09;;;;;;;8.63;4.53;;;8.60;99.90;;;;;;5034793;28;20428;-84
2022/10/26 02:32:39;;;;;;;7.17;4.10;;;8.50;99.90;;;;;;5033653;28;20471;-85
2022/10/26 02:35:05;;;;;;;5.00;2.73;;;8.50;99.90;;;;;;5033687;28;20463;-93
2022/10/26 02:37:33;;;;;;;6.07;3.77;;;8.40;99.90;;;;;;5033685;28;20955;-84
2022/10/26 02:40:01;;;;;;;6.10;3.40;;;8.40;99.90;;;;;;5035056;28;20173;-84
2022/10/26 02:42:27;;;;;;;4.93;3.07;;;8.40;99.90;;;;;;5034280;28;20418;-86
2022/10/26 02:45:02;;;;;;;9.80;4.43;;;8.40;99.90;;;;;;5037259;28;20420;-86
2022/10/26 02:47:28;;;;;;;7.90;4.00;;;8.30;99.90;;;;;;5037090;28;20419;-87
2022/10/26 02:49:55;;;;;;;5.20;3.60;;;8.30;99.90;;;;;;5020368;28;20476;-85
2022/10/26 02:52:47;;;;;;;6.47;4.70;;;8.30;99.90;;;;;;5018960;28;20484;-92
2022/10/26 02:55:26;;;;;;;6.73;3.30;;;8.30;99.90;;;;;;5017893;28;20879;-83
2022/10/26 02:57:58;;;;;;;8.53;3.63;;;8.30;99.90;;;;;;5019578;28;20420;-87
2022/10/26 03:00:23;;;;;;;5.83;3.90;;;8.30;99.90;;;;;;5033932;28;20436;-86
2022/10/26 03:02:56;;;;;;;6.73;4.30;;;8.20;99.90;;;;;;5034002;28;20439;-86
2022/10/26 03:05:31;;;;;;;8.17;5.00;;;8.20;99.90;;;;;;5033425;28;20175;-86
2022/10/26 03:07:57;;;;;;;6.47;4.03;;;8.20;99.90;;;;;;5034020;28;20496;-88
2022/10/26 03:10:23;;;;;;;8.00;4.40;;;8.20;99.90;;;;;;5037392;28;20422;-86
2022/10/26 03:12:49;;;;;;;6.97;3.80;;;8.20;99.90;;;;;;5019861;28;20460;-86
2022/10/26 03:15:14;;;;;;;6.10;4.00;;;8.20;99.90;;;;;;5019724;28;20210;-87
2022/10/26 03:17:40;;;;;;;5.77;3.73;;;8.20;99.90;;;;;;5019328;28;20224;-89
2022/10/26 03:20:06;;;;;;;5.20;2.70;;;8.10;99.90;;;;;;5021354;28;20187;-84
2022/10/26 03:22:32;;;;;;;11.03;5.73;;;8.10;99.90;;;;;;5046811;28;20422;-86
2022/10/26 03:24:57;;;;;;;8.77;4.00;;;8.10;99.90;;;;;;5044940;28;20528;-85
2022/10/26 03:27:23;;;;;;;6.47;3.47;;;8.10;99.90;;;;;;5043243;28;20172;-85
2022/10/26 03:29:48;;;;;;;6.03;4.00;;;8.10;99.90;;;;;;5045018;28;20171;-85
2022/10/26 03:32:14;;;;;;;7.27;3.53;;;8.00;99.90;;;;;;5026819;28;20185;-84
2022/10/26 03:34:39;;;;;;;5.47;3.80;;;8.10;99.90;;;;;;5019710;28;20211;-85
2022/10/26 03:37:05;;;;;;;11.43;4.80;;;8.10;99.90;;;;;;5044094;28;20170;-88
2022/10/26 03:39:30;;;;;;;10.67;5.13;;;8.10;99.90;;;;;;5047350;28;20174;-88
2022/10/26 03:41:56;;;;;;;6.93;3.50;;;8.10;99.90;;;;;;5030736;28;20166;-85
2022/10/26 03:44:22;;;;;;;9.70;4.70;;;8.10;99.90;;;;;;5024909;28;20175;-85
2022/10/26 03:46:47;;;;;;;6.77;4.63;;;8.10;99.90;;;;;;5041765;28;20175;-86
2022/10/26 03:49:13;;;;;;;8.60;5.00;;;8.10;99.90;;;;;;5027084;28;20174;-86
2022/10/26 03:51:38;;;;;;;8.80;4.60;;;8.10;99.90;;;;;;5046381;28;20235;-85
2022/10/26 03:54:05;;;;;;;9.10;4.90;;;8.10;99.90;;;;;;5046283;28;20288;-86
2022/10/26 03:56:30;;;;;;;9.17;4.77;;;8.10;99.90;;;;;;5044447;28;20224;-93
2022/10/26 03:58:56;;;;;;;10.93;5.83;;;8.10;99.90;;;;;;5029887;28;20825;-86
2022/10/26 04:01:21;;;;;;;13.20;6.40;;;8.00;99.90;;;;;;5031881;28;20175;-92
2022/10/26 04:03:47;;;;;;;8.47;3.87;;;8.00;99.90;;;;;;5049539;28;20309;-89
2022/10/26 04:06:32;;;;;;;8.23;4.37;;;8.00;99.90;;;;;;5032467;28;20154;-84
2022/10/26 04:09:01;;;;;;;10.23;4.40;;;8.00;99.90;;;;;;5042463;28;20258;-85
2022/10/26 04:11:30;;;;;;;9.33;4.30;;;8.00;99.90;;;;;;5040247;28;20444;-94
2022/10/26 04:13:58;;;;;;;14.20;6.10;;;8.00;99.90;;;;;;5029758;28;20622;-86
2022/10/26 04:16:24;;;;;;;8.90;5.33;;;8.00;99.90;;;;;;5049572;28;20502;-89
2022/10/26 04:18:50;;;;;;;14.50;5.43;;;8.10;99.90;;;;;;5044933;28;20406;-87
2022/10/26 04:21:15;;;;;;;9.30;5.23;;;8.10;99.90;;;;;;5044816;28;20428;-88
2022/10/26 04:23:41;;;;;;;9.70;4.90;;;8.10;99.90;;;;;;5026404;28;20239;-85
2022/10/26 04:26:06;;;;;;;10.87;4.67;;;8.00;99.90;;;;;;5049290;28;20679;-93
2022/10/26 04:28:32;;;;;;;10.90;4.27;;;8.10;99.90;;;;;;5050518;28;20237;-88
2022/10/26 04:30:58;;;;;;;8.30;4.50;;;8.10;99.90;;;;;;5038114;28;20170;-91
2022/10/26 04:33:23;;;;;;;9.57;5.60;;;8.00;99.90;;;;;;5037609;28;20173;-87
2022/10/26 04:35:49;;;;;;;9.17;5.17;;;8.00;99.90;;;;;;5038444;28;20570;-88
2022/10/26 04:38:14;;;;;;;13.53;5.63;;;8.00;99.90;;;;;;5019964;28;20167;-85
2022/10/26 04:40:40;;;;;;;8.47;4.60;;;8.00;99.90;;;;;;5025599;28;20220;-88
2022/10/26 04:43:06;;;;;;;8.27;5.20;;;8.00;99.90;;;;;;5022403;28;20530;-87
2022/10/26 04:45:34;;;;;;;8.73;4.30;;;8.00;99.90;;;;;;5018607;28;20178;-90
2022/10/26 04:48:05;;;;;;;11.60;6.27;;;8.00;99.90;;;;;;5019530;28;20431;-91
2022/10/26 04:50:31;;;;;;;8.30;4.70;;;8.10;99.90;;;;;;5036822;28;20777;-87
2022/10/26 04:52:57;;;;;;;11.83;5.87;;;8.00;99.90;;;;;;5018366;28;20943;-87
2022/10/26 04:55:22;;;;;;;11.10;6.17;;;8.00;99.90;;;;;;5036957;28;20472;-85
2022/10/26 04:57:48;;;;;;;9.47;5.53;;;8.10;99.90;;;;;;5036178;28;20232;-85
2022/10/26 05:00:13;;;;;;;10.20;5.13;;;8.10;99.90;;;;;;5018367;28;20205;-86
2022/10/26 05:02:39;;;;;;;10.73;6.30;;;8.00;99.90;;;;;;5036046;28;20251;-87
2022/10/26 05:05:04;;;;;;;12.40;6.67;;;8.00;99.90;;;;;;5018819;28;20206;-90
2022/10/26 05:07:30;;;;;;;11.40;5.93;;;8.00;99.90;;;;;;5018818;28;20204;-91
2022/10/26 05:09:55;;;;;;;9.33;6.10;;;8.00;99.90;;;;;;5037061;28;20715;-87
2022/10/26 05:12:21;;;;;;;13.77;7.10;;;8.00;99.90;;;;;;5019521;28;20169;-86
2022/10/26 05:14:47;;;;;;;13.20;7.23;;;8.10;99.90;;;;;;5020097;28;20217;-90
2022/10/26 05:17:13;;;;;;;9.43;5.63;;;8.10;99.90;;;;;;5019472;28;20538;-88
2022/10/26 05:19:38;;;;;;;11.07;7.47;;;8.00;99.90;;;;;;5018533;28;20518;-87
2022/10/26 05:22:04;;;;;;;14.90;7.20;;;8.00;99.90;;;;;;5035769;28;20163;-88
2022/10/26 05:24:29;;;;;;;11.90;6.27;;;8.00;99.90;;;;;;5035520;28;20521;-90
2022/10/26 05:26:55;;;;;;;10.33;7.40;;;8.00;99.90;;;;;;5018545;28;20174;-87
2022/10/26 05:29:21;;;;;;;12.40;7.37;;;8.00;99.90;;;;;;5035980;28;20170;-85
2022/10/26 05:31:46;;;;;;;15.93;7.53;;;8.00;99.90;;;;;;5034907;28;20629;-87
2022/10/26 05:34:11;;;;;;;11.97;7.00;;;8.00;99.90;;;;;;5018840;28;20224;-84
2022/10/26 05:36:38;;;;;;;13.37;7.40;;;7.90;99.90;;;;;;5037002;28;20220;-82
2022/10/26 05:39:04;;;;;;;12.53;6.80;;;8.00;99.90;;;;;;5019748;28;20170;-85
2022/10/26 05:41:30;;;;;;;12.70;7.80;;;7.90;99.90;;;;;;5018780;28;20422;-86
2022/10/26 05:43:55;;;;;;;10.27;7.13;;;8.00;99.90;;;;;;5017073;28;20172;-86
2022/10/26 05:46:21;;;;;;;15.93;7.93;;;7.90;99.90;;;;;;5016597;28;20166;-91
2022/10/26 05:48:46;;;;;;;22.27;7.60;;;7.90;99.90;;;;;;5018260;28;20208;-90
2022/10/26 05:51:13;;;;;;;11.13;7.17;;;7.90;99.90;;;;;;5035581;28;20578;-89
2022/10/26 05:53:38;;;;;;;13.37;7.27;;;7.90;99.90;;;;;;5017271;28;20172;-87
2022/10/26 05:56:19;;;;;;;11.57;6.50;;;7.80;99.90;;;;;;5035062;28;20446;-87
2022/10/26 05:58:45;;;;;;;13.30;6.20;;;7.90;99.90;;;;;;5017297;28;20186;-87
2022/10/26 06:01:20;;;;;;;15.40;6.93;;;7.90;99.90;;;;;;5017508;28;20785;-86
2022/10/26 06:04:10;;;;;;;10.07;5.70;;;7.90;99.90;;;;;;5018156;28;20417;-89
2022/10/26 06:06:46;;;;;;;13.40;7.70;;;7.90;99.90;;;;;;5020472;28;20421;-86
2022/10/26 06:09:13;;;;;;;13.10;7.00;;;8.00;99.90;;;;;;5039575;28;20501;-86
2022/10/26 06:11:39;;;;;;;13.10;8.40;;;8.00;99.90;;;;;;5039641;28;20409;-87
2022/10/26 06:14:06;;;;;;;13.57;8.00;;;8.00;99.90;;;;;;5040394;28;20456;-86
2022/10/26 06:17:03;;;;;;;13.60;8.10;;;8.10;99.90;;;;;;5037530;28;21070;-90
2022/10/26 06:19:41;;;;;;;15.77;9.10;;;8.10;99.90;;;;;;5019241;28;20426;-88
2022/10/26 06:22:24;;;;;;;10.53;6.20;;;8.10;99.90;;;;;;5017786;28;20420;-88
2022/10/26 06:25:24;;;;;;;21.27;9.27;;;8.10;99.90;;;;;;5017551;28;20459;-86
2022/10/26 06:28:20;;;;;;;13.63;8.30;;;8.10;99.90;;;;;;5017010;28;20508;-86
2022/10/26 06:30:46;;;;;;;14.83;7.23;;;8.20;99.90;;;;;;5034392;28;20420;-86
2022/10/26 06:33:13;;;;;;;13.47;7.80;;;8.20;99.90;;;;;;5019085;28;21033;-88
2022/10/26 06:35:39;;;;;;;13.23;8.87;;;8.20;99.90;;;;;;5018000;28;20632;-90
2022/10/26 06:38:10;;;;;;;12.50;7.20;;;8.30;99.90;;;;;;5018017;28;20420;-90
2022/10/26 06:40:39;;;;;;;13.83;8.20;;;8.30;99.90;;;;;;5034955;28;20416;-89
2022/10/26 06:43:19;;;;;;;15.50;8.10;;;8.30;99.90;;;;;;5017163;28;20476;-88
2022/10/26 06:45:49;;;;;;;12.83;7.23;;;8.40;99.90;;;;;;5030503;28;20440;-91
2022/10/26 06:48:24;;;;;;;9.93;7.43;;;8.40;99.90;;;;;;5038883;28;20412;-86
2022/10/26 06:50:52;;;;;;;12.03;7.97;;;8.40;99.90;;;;;;5021435;28;20527;-89
2022/10/26 06:53:41;;;;;;;19.80;10.40;;;8.50;99.90;;;;;;5018275;28;20428;-90
2022/10/26 06:56:10;;;;;;;18.80;8.53;;;8.60;99.90;;;;;;5019304;28;20430;-88
2022/10/26 06:58:37;;;;;;;11.40;7.97;;;8.60;99.90;;;;;;5021354;28;20422;-85
2022/10/26 07:01:04;;;;;;;15.97;8.83;;;8.60;99.90;;;;;;5017879;28;20428;-85
2022/10/26 07:03:30;;;;;;;12.03;7.87;;;8.70;99.90;;;;;;5016655;28;20428;-85
2022/10/26 07:05:56;;;;;;;13.10;7.93;;;8.70;99.90;;;;;;5035566;28;20455;-85
2022/10/26 07:08:21;;;;;;;15.90;7.27;;;8.80;99.90;;;;;;5023148;28;20174;-85
2022/10/26 07:10:47;;;;;;;16.97;8.50;;;8.80;99.90;;;;;;5034045;28;20206;-86
2022/10/26 07:13:12;;;;;;;12.30;7.90;;;8.90;99.90;;;;;;5033803;28;20192;-85
2022/10/26 07:15:41;;;;;;;13.13;7.60;;;8.90;99.90;;;;;;5032998;28;20683;-85
2022/10/26 07:18:08;;;;;;;12.93;7.50;;;8.90;99.90;;;;;;5015995;28;20174;-85
2022/10/26 07:20:38;;;;;;;14.57;8.43;;;9.00;99.90;;;;;;5016161;28;20430;-85
2022/10/26 07:23:10;;;;;;;16.90;8.10;;;9.20;99.90;;;;;;5015727;28;20413;-86
2022/10/26 07:25:38;;;;;;;14.70;8.37;;;9.20;99.90;;;;;;5032940;28;20915;-89
2022/10/26 07:28:09;;;;;;;17.23;9.53;;;9.30;99.90;;;;;;5028465;28;20415;-89
2022/10/26 07:30:36;;;;;;;14.20;8.10;;;9.50;99.90;;;;;;5056845;28;20404;-91
2022/10/26 07:33:11;;;;;;;13.03;7.57;;;9.60;99.90;;;;;;5041724;28;20944;-90
2022/10/26 07:35:37;;;;;;;11.97;8.00;;;9.90;99.90;;;;;;5040360;28;20476;-88
2022/10/26 07:38:03;;;;;;;13.93;8.13;;;10.10;99.90;;;;;;5040693;28;20431;-88
2022/10/26 07:40:30;;;;;;;8.50;5.97;;;10.10;99.90;;;;;;5039979;28;20608;-92
2022/10/26 07:43:01;;;;;;;13.37;7.20;;;10.10;99.90;;;;;;5058894;28;20418;-87
2022/10/26 07:45:28;;;;;;;10.53;6.87;;;10.70;99.90;;;;;;5039755;28;20431;-89
2022/10/26 07:47:56;;;;;;;10.47;5.60;;;10.50;99.90;;;;;;5032861;28;20416;-87
2022/10/26 07:50:23;;;;;;;12.03;7.10;;;10.60;99.90;;;;;;5019904;28;20482;-85
2022/10/26 07:52:49;;;;;;;9.77;6.87;;;10.90;99.90;;;;;;5038734;28;20424;-92
2022/10/26 07:55:15;;;;;;;9.10;5.97;;;11.00;99.90;;;;;;5039331;28;20565;-90
2022/10/26 07:57:40;;;;;;;10.50;6.73;;;11.30;99.90;;;;;;5040601;28;20444;-89
2022/10/26 08:00:08;;;;;;;10.20;5.77;;;11.90;99.90;;;;;;5039365;28;20170;-87
2022/10/26 08:02:34;;;;;;;12.80;7.47;;;12.10;99.90;;;;;;5024031;28;20175;-91
2022/10/26 08:05:00;;;;;;;8.50;6.00;;;12.30;99.90;;;;;;5024284;28;20416;-89
2022/10/26 08:07:26;;;;;;;8.47;5.63;;;12.40;99.90;;;;;;5042200;28;20241;-93
2022/10/26 08:09:52;;;;;;;9.00;5.70;;;13.20;99.90;;;;;;5043209;28;20172;-92
2022/10/26 08:12:18;;;;;;;8.90;5.70;;;14.60;1.00;;;;;;5044129;28;20422;-88
2022/10/26 08:14:47;;;;;;;7.03;5.43;;;15.10;1.00;;;;;;5041203;28;20205;-95
2022/10/26 08:17:12;;;;;;;7.70;4.83;;;15.20;1.00;;;;;;5040400;28;20406;-90
2022/10/26 08:19:38;;;;;;;6.90;5.63;;;13.90;1.00;;;;;;5040635;28;20443;-93
2022/10/26 08:22:03;;;;;;;7.27;4.77;;;13.60;66.00;;;;;;5037770;28;20176;-87
2022/10/26 08:24:29;;;;;;;6.70;4.90;;;12.90;99.90;;;;;;5037244;28;20169;-88
2022/10/26 08:26:54;;;;;;;6.70;5.20;;;13.20;99.90;;;;;;5020248;28;20171;-90
2022/10/26 08:29:20;;;;;;;7.60;5.40;;;15.50;1.00;;;;;;5019686;28;20179;-91
2022/10/26 08:31:47;;;;;;;5.00;3.60;;;16.40;99.90;;;;;;5036408;28;20230;-89
2022/10/26 08:34:12;;;;;;;9.70;4.90;;;17.40;99.90;;;;;;5017482;28;20202;-88
2022/10/26 08:36:38;;;;;;;6.27;4.40;;;18.20;1.00;;;;;;5037207;28;20422;-87
2022/10/26 08:39:04;;;;;;;3.60;3.23;;;18.40;1.00;;;;;;5037975;28;20180;-89
2022/10/26 08:41:36;;;;;;;6.70;4.60;;;17.70;1.00;;;;;;5036048;28;20180;-86
2022/10/26 08:44:28;;;;;;;5.23;4.47;;;17.60;1.00;;;;;;5035357;28;20168;-85
2022/10/26 08:47:15;;;;;;;6.10;4.20;;;18.90;1.00;;;;;;5032276;28;20432;-84
2022/10/26 08:49:51;;;;;;;5.27;3.50;;;19.50;99.90;;;;;;5026981;28;20598;-84
2022/10/26 08:52:22;;;;;;;4.50;3.67;;;20.10;99.90;;;;;;5035990;28;20417;-89
2022/10/26 08:54:54;;;;;;;5.03;3.37;;;19.90;99.90;;;;;;5035960;28;20472;-84
2022/10/26 08:57:36;;;;;;;3.17;2.37;;;19.90;99.90;;;;;;5018159;28;20417;-87
2022/10/26 09:00:06;;;;;;;5.10;3.10;;;20.10;99.90;;;;;;5034681;28;20409;-87
2022/10/26 09:02:31;;;;;;;5.20;3.50;;;20.50;99.90;;;;;;5035726;28;20463;-85
2022/10/26 09:04:59;;;;;;;5.20;3.37;;;20.40;99.90;;;;;;5035782;28;20445;-86
2022/10/26 09:07:42;;;;;;;6.30;3.40;;;19.60;99.90;;;;;;5035341;28;20255;-86
2022/10/26 09:10:47;;;;;;;4.03;3.73;;;20.40;99.90;;;;;;5035185;28;20409;-87
2022/10/26 09:13:37;;;;;;;4.83;2.87;;;21.30;99.90;;;;;;5035076;28;20447;-89
2022/10/26 09:16:29;;;;;;;4.03;2.60;;;21.20;99.90;;;;;;5034289;28;20897;-87
2022/10/26 09:19:22;;;;;;;5.73;3.60;;;21.10;99.90;;;;;;5034897;28;20505;-88
2022/10/26 09:22:06;;;;;;;2.67;2.47;;;21.50;99.90;;;;;;5035043;28;20475;-86
2022/10/26 09:24:36;;;;;;;4.47;2.47;;;22.20;99.90;;;;;;5034910;28;20421;-87
2022/10/26 09:27:23;;;;;;;3.80;2.60;;;22.40;99.90;;;;;;5034785;28;20421;-90
2022/10/26 09:29:50;;;;;;;4.67;2.77;;;22.30;99.90;;;;;;5021952;28;20506;-85
2022/10/26 09:32:19;;;;;;;3.30;2.23;;;22.20;99.90;;;;;;5042094;28;20851;-86
2022/10/26 09:34:58;;;;;;;3.60;2.67;;;22.20;99.90;;;;;;5027376;28;20922;-89
2022/10/26 09:37:34;;;;;;;4.10;2.80;;;22.30;99.90;;;;;;5040247;28;20411;-87
2022/10/26 09:40:28;;;;;;;3.63;3.00;;;21.70;99.90;;;;;;5024262;28;20467;-90
2022/10/26 09:43:04;;;;;;;4.13;2.90;;;22.30;99.90;;;;;;5017634;28;20931;-85
2022/10/26 09:45:35;;;;;;;3.17;2.50;;;22.30;99.90;;;;;;5043884;28;20424;-85
2022/10/26 09:48:22;;;;;;;2.83;2.50;;;22.20;99.90;;;;;;5042190;28;20424;-88
2022/10/26 09:50:49;;;;;;;3.23;2.67;;;21.30;99.90;;;;;;5043202;28;20460;-89
2022/10/26 09:53:14;;;;;;;3.73;2.33;;;21.20;99.90;;;;;;5044224;28;20404;-87
2022/10/26 09:55:43;;;;;;;3.07;2.67;;;21.10;99.90;;;;;;5043619;28;20467;-90
2022/10/26 09:58:15;;;;;;;3.03;2.03;;;21.70;99.90;;;;;;5044213;28;20174;-83
2022/10/26 10:00:42;;;;;;;4.70;3.07;;;22.30;99.90;;;;;;5037166;28;20533;-84
2022/10/26 10:03:25;;;;;;;4.20;2.50;;;22.70;99.90;;;;;;5037003;28;20463;-86
2022/10/26 10:05:50;;;;;;;3.23;2.57;;;22.80;99.90;;;;;;5035842;28;20505;-84
2022/10/26 10:08:24;;;;;;;4.30;2.67;;;21.80;99.90;;;;;;5034085;28;20524;-86
2022/10/26 10:11:09;;;;;;;3.13;2.13;;;21.80;99.90;;;;;;5034866;28;20198;-84
2022/10/26 10:13:36;;;;;;;3.13;2.27;;;22.10;99.90;;;;;;5039955;28;20487;-84
2022/10/26 10:16:04;;;;;;;4.10;2.70;;;22.90;99.90;;;;;;5054245;28;20551;-85
2022/10/26 10:18:31;;;;;;;4.53;3.17;;;23.70;99.90;;;;;;5053903;28;20408;-87
2022/10/26 10:20:58;;;;;;;6.80;3.33;;;23.90;99.90;;;;;;5047986;28;20428;-84
2022/10/26 10:23:36;;;;;;;4.23;2.67;;;23.50;99.90;;;;;;5043140;28;20405;-89
2022/10/26 10:26:03;;;;;;;3.87;3.20;;;23.20;99.90;;;;;;5040495;28;20571;-88
2022/10/26 10:28:29;;;;;;;3.80;2.90;;;23.30;99.90;;;;;;5044558;28;20435;-93
2022/10/26 10:30:58;;;;;;;6.00;2.90;;;23.10;99.90;;;;;;5041755;28;20417;-86
2022/10/26 10:33:38;;;;;;;3.70;2.97;;;22.00;99.90;;;;;;5044300;28;20171;-86
2022/10/26 10:36:16;;;;;;;3.30;2.80;;;21.60;99.90;;;;;;5041522;28;20472;-85
2022/10/26 10:38:43;;;;;;;4.90;3.03;;;20.90;99.90;;;;;;5041603;28;20833;-85
2022/10/26 10:41:25;;;;;;;5.53;2.70;;;19.50;99.90;;;;;;5025317;28;20439;-86
2022/10/26 10:43:55;;;;;;;6.27;2.33;;;18.60;1.00;;;;;;5045912;28;20969;-87
2022/10/26 10:46:24;;;;;;;5.17;2.80;;;18.50;99.90;;;;;;5041002;28;20466;-92
2022/10/26 10:49:18;;;;;;;3.20;2.47;;;20.50;99.90;;;;;;5043987;28;20410;-87
2022/10/26 10:51:44;;;;;;;4.33;2.20;;;19.80;99.90;;;;;;5019997;28;20433;-86
2022/10/26 10:54:33;;;;;;;6.20;2.90;;;18.70;5.00;;;;;;5038813;28;20985;-90
2022/10/26 10:57:15;;;;;;;3.60;2.03;;;18.30;99.90;;;;;;5030886;28;20188;-85
2022/10/26 10:59:59;;;;;;;5.57;3.33;;;17.60;1.00;;;;;;5039401;28;20896;-86
2022/10/26 11:03:03;;;;;;;3.27;2.00;;;17.40;1.00;;;;;;5024442;28;20516;-86
2022/10/26 11:06:16;;;;;;;4.07;2.53;;;17.70;1.70;;;;;;5042161;28;20417;-85
2022/10/26 11:08:50;;;;;;;4.37;2.67;;;17.60;1.00;;;;;;5019123;28;20939;-85
2022/10/26 11:11:34;;;;;;;5.50;3.43;;;17.30;1.00;;;;;;5037880;28;20461;-91
2022/10/26 11:14:12;;;;;;;7.13;3.40;;;17.30;99.90;;;;;;5022892;28;20419;-85
2022/10/26 11:16:49;;;;;;;5.37;2.67;;;17.50;1.00;;;;;;5038982;28;20495;-84
2022/10/26 11:19:24;;;;;;;3.83;2.60;;;18.20;99.90;;;;;;5041043;28;20419;-87
2022/10/26 11:21:53;;;;;;;4.20;2.33;;;17.90;99.90;;;;;;5040932;28;20435;-85
2022/10/26 11:24:42;;;;;;;5.40;2.63;;;17.80;1.00;;;;;;5042008;28;20412;-85
2022/10/26 11:27:20;;;;;;;5.03;1.87;;;17.60;99.90;;;;;;5039108;28;20807;-83
2022/10/26 11:30:10;;;;;;;4.70;2.37;;;17.50;1.00;;;;;;5043208;28;20412;-84
2022/10/26 11:32:44;;;;;;;4.17;2.33;;;17.70;99.90;;;;;;5034510;28;20416;-84
2022/10/26 11:35:13;;;;;;;3.33;2.80;;;17.60;99.90;;;;;;5044629;28;20542;-84
2022/10/26 11:37:55;;;;;;;4.33;2.10;;;17.80;1.00;;;;;;5026781;28;20428;-84
2022/10/26 11:40:34;;;;;;;4.60;2.30;;;17.80;1.00;;;;;;5042293;28;20421;-86
2022/10/26 11:43:35;;;;;;;4.90;3.20;;;17.70;99.90;;;;;;5043710;28;20475;-84
2022/10/26 11:46:17;;;;;;;6.27;3.20;;;17.70;1.00;;;;;;5015489;28;20426;-86
2022/10/26 11:48:53;;;;;;;5.03;2.40;;;17.90;99.90;;;;;;5017814;28;20923;-89
2022/10/26 11:51:40;;;;;;;2.40;1.20;;;17.90;99.90;;;;;;5016312;28;20551;-87
2022/10/26 11:54:28;;;;;;;2.67;1.40;;;18.00;1.00;;;;;;5016712;28;20409;-85
2022/10/26 11:56:55;;;;;;;4.20;2.17;;;18.00;1.00;;;;;;5018394;28;20405;-86
2022/10/26 11:59:24;;;;;;;3.47;1.40;;;18.50;1.00;;;;;;5019261;28;20927;-88
2022/10/26 12:01:59;;;;;;;3.67;1.70;;;18.60;99.50;;;;;;5019769;28;20495;-88
2022/10/26 12:04:31;;;;;;;3.60;1.70;;;18.60;1.00;;;;;;5018866;28;20879;-88
2022/10/26 12:07:00;;;;;;;3.57;1.27;;;18.70;99.90;;;;;;5017578;28;20420;-84
2022/10/26 12:09:33;;;;;;;1.83;0.93;;;18.80;1.00;;;;;;5017249;28;20421;-87
2022/10/26 12:12:22;;;;;;;1.83;0.80;;;18.70;99.90;;;;;;5016630;28;20432;-85
2022/10/26 12:15:19;;;;;;;3.73;2.03;;;18.50;39.30;;;;;;5015897;28;20468;-83
2022/10/26 12:17:54;;;;;;;3.50;2.00;;;18.70;99.90;;;;;;5016298;28;20447;-86
2022/10/26 12:20:40;;;;;;;2.27;0.90;;;18.60;1.00;;;;;;5016207;28;20442;-89
2022/10/26 12:23:09;;;;;;;1.83;1.27;;;18.50;1.00;;;;;;5005624;28;20429;-90
2022/10/26 12:25:35;;;;;;;3.97;1.50;;;18.50;99.90;;;;;;5016077;28;20436;-86
2022/10/26 12:28:00;;;;;;;6.23;1.87;;;18.60;99.90;;;;;;5017115;28;20425;-87
2022/10/26 12:30:29;;;;;;;4.43;1.20;;;18.70;99.90;;;;;;5017598;28;20247;-85
2022/10/26 12:32:59;;;;;;;5.83;1.37;;;18.70;99.90;;;;;;5017198;28;20169;-89
2022/10/26 12:35:44;;;;;;;5.83;1.73;;;18.80;1.00;;;;;;5016595;28;20991;-89
2022/10/26 12:38:24;;;;;;;3.10;1.67;;;18.80;99.90;;;;;;5017077;28;20854;-86
2022/10/26 12:41:05;;;;;;;4.30;1.70;;;18.40;1.00;;;;;;5016504;28;20435;-89
2022/10/26 12:43:37;;;;;;;1.90;0.80;;;18.50;99.90;;;;;;5017281;28;20795;-90
2022/10/26 12:46:12;;;;;;;4.60;1.47;;;18.20;1.00;;;;;;5017551;28;20524;-91
2022/10/26 12:48:42;;;;;;;5.37;1.03;;;18.20;1.00;;;;;;5017336;28;20407;-89
2022/10/26 12:51:23;;;;;;;2.30;1.37;;;18.20;10.30;;;;;;5017402;28;20461;-91
2022/10/26 12:54:11;;;;;;;4.17;1.60;;;18.20;99.90;;;;;;5016868;28;20826;-92
2022/10/26 12:57:12;;;;;;;3.00;1.27;;;18.20;99.90;;;;;;5017285;28;20949;-84
2022/10/26 12:59:49;;;;;;;5.20;1.30;;;18.30;99.90;;;;;;5023051;28;20418;-89
2022/10/26 13:02:35;;;;;;;2.63;1.30;;;18.30;99.90;;;;;;5019587;28;20414;-86
2022/10/26 13:05:23;;;;;;;4.43;1.37;;;18.40;1.00;;;;;;5036248;28;20416;-90
2022/10/26 13:07:49;;;;;;;3.20;1.60;;;18.30;1.00;;;;;;5047368;28;20419;-90
2022/10/26 13:10:24;;;;;;;3.90;1.60;;;18.30;75.80;;;;;;5053396;28;20405;-92
2022/10/26 13:12:59;;;;;;;2.50;1.07;;;18.50;99.90;;;;;;5035336;28;20444;-90
2022/10/26 13:15:38;;;;;;;2.90;1.50;;;18.50;99.90;;;;;;5035121;28;20466;-86
2022/10/26 13:18:17;;;;;;;4.17;1.47;;;18.50;99.90;;;;;;5036331;28;20409;-91